sensor_id;sensor_type;location;lat;lon;timestamp;P1;durP1;ratioP1;P2;durP2;ratioP2
20896;SDS011;10608;42.600;23.398;2023-06-01T00:01:46;138.27;;;131.97;;
20896;SDS011;10608;42.600;23.398;2023-06-01T00:04:12;158.03;;;151.13;;
20896;SDS011;10608;42.600;23.398;2023-06-01T00:06:38;177.20;;;169.77;;
20896;SDS011;10608;42.600;23.398;2023-06-01T00:09:03;154.00;;;147.50;;
20896;SDS011;10608;42.600;23.398;2023-06-01T00:11:29;146.67;;;140.43;;
20896;SDS011;10608;42.600;23.398;2023-06-01T00:13:54;139.13;;;133.23;;
20896;SDS011;10608;42.600;23.398;2023-06-01T00:16:19;137.70;;;131.80;;
20896;SDS011;10608;42.600;23.398;2023-06-01T00:18:44;113.90;;;108.97;;
20896;SDS011;10608;42.600;23.398;2023-06-01T00:21:10;92.90;;;88.60;;
20896;SDS011;10608;42.600;23.398;2023-06-01T00:23:35;78.37;;;74.87;;
20896;SDS011;10608;42.600;23.398;2023-06-01T00:26:01;81.33;;;77.70;;
20896;SDS011;10608;42.600;23.398;2023-06-01T00:28:26;82.20;;;78.57;;
20896;SDS011;10608;42.600;23.398;2023-06-01T00:30:51;94.10;;;90.03;;
20896;SDS011;10608;42.600;23.398;2023-06-01T00:33:18;100.80;;;96.40;;
20896;SDS011;10608;42.600;23.398;2023-06-01T00:35:43;99.30;;;95.00;;
20896;SDS011;10608;42.600;23.398;2023-06-01T00:38:08;111.63;;;106.60;;
20896;SDS011;10608;42.600;23.398;2023-06-01T00:40:33;116.33;;;111.10;;
20896;SDS011;10608;42.600;23.398;2023-06-01T00:42:59;111.83;;;106.67;;
20896;SDS011;10608;42.600;23.398;2023-06-01T00:45:24;126.33;;;120.77;;
20896;SDS011;10608;42.600;23.398;2023-06-01T00:47:50;120.93;;;115.83;;
20896;SDS011;10608;42.600;23.398;2023-06-01T00:50:15;139.17;;;133.00;;
20896;SDS011;10608;42.600;23.398;2023-06-01T00:52:40;149.20;;;142.00;;
20896;SDS011;10608;42.600;23.398;2023-06-01T00:55:06;149.53;;;142.67;;
20896;SDS011;10608;42.600;23.398;2023-06-01T00:57:32;149.53;;;142.33;;
20896;SDS011;10608;42.600;23.398;2023-06-01T00:59:58;128.97;;;122.47;;
20896;SDS011;10608;42.600;23.398;2023-06-01T01:02:23;103.60;;;98.87;;
20896;SDS011;10608;42.600;23.398;2023-06-01T01:04:48;90.97;;;86.90;;
20896;SDS011;10608;42.600;23.398;2023-06-01T01:09:49;97.30;;;92.80;;
20896;SDS011;10608;42.600;23.398;2023-06-01T01:12:23;109.93;;;104.90;;
20896;SDS011;10608;42.600;23.398;2023-06-01T01:17:38;123.37;;;117.70;;
20896;SDS011;10608;42.600;23.398;2023-06-01T01:20:24;130.47;;;124.00;;
20896;SDS011;10608;42.600;23.398;2023-06-01T01:23:14;135.30;;;128.63;;
20896;SDS011;10608;42.600;23.398;2023-06-01T01:31:09;153.33;;;146.13;;
20896;SDS011;10608;42.600;23.398;2023-06-01T01:33:34;151.57;;;144.40;;
20896;SDS011;10608;42.600;23.398;2023-06-01T01:36:00;151.83;;;144.43;;
20896;SDS011;10608;42.600;23.398;2023-06-01T01:38:26;123.63;;;117.80;;
20896;SDS011;10608;42.600;23.398;2023-06-01T01:40:51;125.30;;;119.30;;
20896;SDS011;10608;42.600;23.398;2023-06-01T01:43:18;133.73;;;127.43;;
20896;SDS011;10608;42.600;23.398;2023-06-01T01:45:43;142.20;;;135.63;;
20896;SDS011;10608;42.600;23.398;2023-06-01T01:48:18;136.43;;;130.20;;
20896;SDS011;10608;42.600;23.398;2023-06-01T01:50:51;131.47;;;125.30;;
20896;SDS011;10608;42.600;23.398;2023-06-01T01:53:17;152.30;;;145.17;;
20896;SDS011;10608;42.600;23.398;2023-06-01T01:55:43;146.97;;;140.23;;
20896;SDS011;10608;42.600;23.398;2023-06-01T01:58:10;152.77;;;145.90;;
20896;SDS011;10608;42.600;23.398;2023-06-01T02:00:35;142.97;;;136.33;;
20896;SDS011;10608;42.600;23.398;2023-06-01T02:03:01;138.97;;;132.57;;
20896;SDS011;10608;42.600;23.398;2023-06-01T02:05:26;116.80;;;111.20;;
20896;SDS011;10608;42.600;23.398;2023-06-01T02:07:52;115.97;;;110.67;;
20896;SDS011;10608;42.600;23.398;2023-06-01T02:10:17;90.43;;;86.53;;
20896;SDS011;10608;42.600;23.398;2023-06-01T02:12:42;84.60;;;81.00;;
20896;SDS011;10608;42.600;23.398;2023-06-01T02:15:08;82.37;;;78.87;;
20896;SDS011;10608;42.600;23.398;2023-06-01T02:17:33;97.47;;;93.20;;
20896;SDS011;10608;42.600;23.398;2023-06-01T02:19:59;105.80;;;101.10;;
20896;SDS011;10608;42.600;23.398;2023-06-01T02:22:25;95.70;;;91.53;;
20896;SDS011;10608;42.600;23.398;2023-06-01T02:24:50;105.90;;;101.07;;
20896;SDS011;10608;42.600;23.398;2023-06-01T02:27:16;75.47;;;72.13;;
20896;SDS011;10608;42.600;23.398;2023-06-01T02:29:41;72.00;;;68.90;;
20896;SDS011;10608;42.600;23.398;2023-06-01T02:32:06;55.20;;;52.87;;
20896;SDS011;10608;42.600;23.398;2023-06-01T02:34:31;56.93;;;54.50;;
20896;SDS011;10608;42.600;23.398;2023-06-01T02:36:57;73.37;;;70.30;;
20896;SDS011;10608;42.600;23.398;2023-06-01T02:39:22;79.23;;;75.83;;
20896;SDS011;10608;42.600;23.398;2023-06-01T02:41:48;68.83;;;65.83;;
20896;SDS011;10608;42.600;23.398;2023-06-01T02:44:13;65.70;;;62.87;;
20896;SDS011;10608;42.600;23.398;2023-06-01T02:46:39;60.80;;;58.17;;
20896;SDS011;10608;42.600;23.398;2023-06-01T02:49:04;58.00;;;55.50;;
20896;SDS011;10608;42.600;23.398;2023-06-01T02:51:30;74.23;;;71.10;;
20896;SDS011;10608;42.600;23.398;2023-06-01T02:53:56;65.97;;;63.10;;
20896;SDS011;10608;42.600;23.398;2023-06-01T02:56:21;65.73;;;62.90;;
20896;SDS011;10608;42.600;23.398;2023-06-01T02:58:47;68.07;;;65.07;;
20896;SDS011;10608;42.600;23.398;2023-06-01T03:01:13;68.90;;;65.90;;
20896;SDS011;10608;42.600;23.398;2023-06-01T03:03:39;72.30;;;69.27;;
20896;SDS011;10608;42.600;23.398;2023-06-01T03:06:05;58.53;;;56.10;;
20896;SDS011;10608;42.600;23.398;2023-06-01T03:08:31;56.87;;;54.50;;
20896;SDS011;10608;42.600;23.398;2023-06-01T03:10:56;58.60;;;56.00;;
20896;SDS011;10608;42.600;23.398;2023-06-01T03:13:22;57.33;;;54.83;;
20896;SDS011;10608;42.600;23.398;2023-06-01T03:15:47;67.90;;;64.63;;
20896;SDS011;10608;42.600;23.398;2023-06-01T03:18:12;66.83;;;64.00;;
20896;SDS011;10608;42.600;23.398;2023-06-01T03:20:38;63.03;;;60.33;;
20896;SDS011;10608;42.600;23.398;2023-06-01T03:23:03;84.73;;;80.97;;
20896;SDS011;10608;42.600;23.398;2023-06-01T03:25:28;117.93;;;112.73;;
20896;SDS011;10608;42.600;23.398;2023-06-01T03:27:54;96.40;;;92.10;;
20896;SDS011;10608;42.600;23.398;2023-06-01T03:30:19;140.73;;;134.30;;
20896;SDS011;10608;42.600;23.398;2023-06-01T03:32:44;120.60;;;115.40;;
20896;SDS011;10608;42.600;23.398;2023-06-01T03:35:13;182.33;;;174.13;;
20896;SDS011;10608;42.600;23.398;2023-06-01T03:37:39;159.83;;;152.63;;
20896;SDS011;10608;42.600;23.398;2023-06-01T03:40:05;229.97;;;218.63;;
20896;SDS011;10608;42.600;23.398;2023-06-01T03:42:40;193.93;;;183.83;;
20896;SDS011;10608;42.600;23.398;2023-06-01T03:45:06;118.83;;;113.53;;
20896;SDS011;10608;42.600;23.398;2023-06-01T03:47:31;99.80;;;95.50;;
20896;SDS011;10608;42.600;23.398;2023-06-01T03:49:57;101.20;;;96.83;;
20896;SDS011;10608;42.600;23.398;2023-06-01T03:52:23;167.87;;;160.60;;
20896;SDS011;10608;42.600;23.398;2023-06-01T03:54:48;122.60;;;117.00;;
20896;SDS011;10608;42.600;23.398;2023-06-01T03:57:14;136.53;;;130.53;;
20896;SDS011;10608;42.600;23.398;2023-06-01T03:59:39;111.20;;;106.30;;
20896;SDS011;10608;42.600;23.398;2023-06-01T04:02:04;107.57;;;102.97;;
20896;SDS011;10608;42.600;23.398;2023-06-01T04:04:30;131.83;;;126.03;;
20896;SDS011;10608;42.600;23.398;2023-06-01T04:06:55;158.10;;;150.93;;
20896;SDS011;10608;42.600;23.398;2023-06-01T04:09:26;125.83;;;120.07;;
20896;SDS011;10608;42.600;23.398;2023-06-01T04:11:51;123.57;;;117.90;;
20896;SDS011;10608;42.600;23.398;2023-06-01T04:14:16;82.33;;;78.80;;
20896;SDS011;10608;42.600;23.398;2023-06-01T04:16:41;51.07;;;48.83;;
20896;SDS011;10608;42.600;23.398;2023-06-01T04:19:06;35.80;;;33.80;;
20896;SDS011;10608;42.600;23.398;2023-06-01T04:21:32;42.10;;;40.20;;
20896;SDS011;10608;42.600;23.398;2023-06-01T04:23:57;58.83;;;56.27;;
20896;SDS011;10608;42.600;23.398;2023-06-01T04:26:22;35.27;;;33.67;;
20896;SDS011;10608;42.600;23.398;2023-06-01T04:28:49;21.30;;;20.40;;
20896;SDS011;10608;42.600;23.398;2023-06-01T04:31:14;22.47;;;21.47;;
20896;SDS011;10608;42.600;23.398;2023-06-01T04:33:44;27.90;;;26.63;;
20896;SDS011;10608;42.600;23.398;2023-06-01T04:36:13;20.90;;;20.00;;
20896;SDS011;10608;42.600;23.398;2023-06-01T04:38:41;29.93;;;28.63;;
20896;SDS011;10608;42.600;23.398;2023-06-01T04:41:08;31.87;;;30.57;;
20896;SDS011;10608;42.600;23.398;2023-06-01T04:43:35;26.63;;;25.43;;
20896;SDS011;10608;42.600;23.398;2023-06-01T04:46:01;23.33;;;22.33;;
20896;SDS011;10608;42.600;23.398;2023-06-01T04:48:29;27.90;;;26.70;;
20896;SDS011;10608;42.600;23.398;2023-06-01T04:50:57;31.30;;;29.97;;
20896;SDS011;10608;42.600;23.398;2023-06-01T04:53:22;41.60;;;39.80;;
20896;SDS011;10608;42.600;23.398;2023-06-01T04:55:48;61.37;;;58.77;;
20896;SDS011;10608;42.600;23.398;2023-06-01T04:58:13;57.10;;;54.67;;
20896;SDS011;10608;42.600;23.398;2023-06-01T05:00:38;54.90;;;52.60;;
20896;SDS011;10608;42.600;23.398;2023-06-01T05:03:04;37.13;;;35.57;;
20896;SDS011;10608;42.600;23.398;2023-06-01T05:05:30;28.63;;;27.40;;
20896;SDS011;10608;42.600;23.398;2023-06-01T05:07:55;44.60;;;42.67;;
20896;SDS011;10608;42.600;23.398;2023-06-01T05:10:20;91.00;;;87.33;;
20896;SDS011;10608;42.600;23.398;2023-06-01T05:12:45;52.00;;;49.87;;
20896;SDS011;10608;42.600;23.398;2023-06-01T05:15:11;44.17;;;42.17;;
20896;SDS011;10608;42.600;23.398;2023-06-01T05:17:36;37.57;;;35.90;;
20896;SDS011;10608;42.600;23.398;2023-06-01T05:20:03;60.80;;;58.33;;
20896;SDS011;10608;42.600;23.398;2023-06-01T05:22:29;33.97;;;32.47;;
20896;SDS011;10608;42.600;23.398;2023-06-01T05:24:54;29.13;;;27.83;;
20896;SDS011;10608;42.600;23.398;2023-06-01T05:27:20;30.87;;;29.53;;
20896;SDS011;10608;42.600;23.398;2023-06-01T05:29:45;40.83;;;39.03;;
20896;SDS011;10608;42.600;23.398;2023-06-01T05:32:10;37.30;;;35.70;;
20896;SDS011;10608;42.600;23.398;2023-06-01T05:34:36;39.67;;;37.93;;
20896;SDS011;10608;42.600;23.398;2023-06-01T05:37:01;36.30;;;34.67;;
20896;SDS011;10608;42.600;23.398;2023-06-01T05:39:27;33.07;;;31.63;;
20896;SDS011;10608;42.600;23.398;2023-06-01T05:41:56;25.93;;;24.73;;
20896;SDS011;10608;42.600;23.398;2023-06-01T05:44:22;21.50;;;20.37;;
20896;SDS011;10608;42.600;23.398;2023-06-01T05:46:48;23.57;;;22.50;;
20896;SDS011;10608;42.600;23.398;2023-06-01T05:49:14;22.37;;;21.37;;
20896;SDS011;10608;42.600;23.398;2023-06-01T05:51:40;30.03;;;28.73;;
20896;SDS011;10608;42.600;23.398;2023-06-01T05:54:05;26.23;;;25.13;;
20896;SDS011;10608;42.600;23.398;2023-06-01T05:56:31;39.27;;;37.60;;
20896;SDS011;10608;42.600;23.398;2023-06-01T05:58:56;36.33;;;34.77;;
20896;SDS011;10608;42.600;23.398;2023-06-01T06:01:21;49.03;;;46.87;;
20896;SDS011;10608;42.600;23.398;2023-06-01T06:03:47;31.63;;;30.33;;
20896;SDS011;10608;42.600;23.398;2023-06-01T06:06:12;21.67;;;20.77;;
20896;SDS011;10608;42.600;23.398;2023-06-01T06:08:38;17.63;;;16.83;;
20896;SDS011;10608;42.600;23.398;2023-06-01T06:11:03;29.20;;;27.97;;
20896;SDS011;10608;42.600;23.398;2023-06-01T06:13:28;16.77;;;15.97;;
20896;SDS011;10608;42.600;23.398;2023-06-01T06:15:53;15.70;;;15.00;;
20896;SDS011;10608;42.600;23.398;2023-06-01T06:18:20;17.43;;;16.63;;
20896;SDS011;10608;42.600;23.398;2023-06-01T06:20:46;16.73;;;16.00;;
20896;SDS011;10608;42.600;23.398;2023-06-01T06:23:11;17.60;;;16.77;;
20896;SDS011;10608;42.600;23.398;2023-06-01T06:25:37;19.63;;;18.73;;
20896;SDS011;10608;42.600;23.398;2023-06-01T06:28:05;22.73;;;21.60;;
20896;SDS011;10608;42.600;23.398;2023-06-01T06:30:30;28.23;;;26.97;;
20896;SDS011;10608;42.600;23.398;2023-06-01T06:32:55;25.27;;;24.13;;
20896;SDS011;10608;42.600;23.398;2023-06-01T06:35:20;16.40;;;15.67;;
20896;SDS011;10608;42.600;23.398;2023-06-01T06:37:46;17.27;;;16.47;;
20896;SDS011;10608;42.600;23.398;2023-06-01T06:40:11;30.40;;;29.10;;
20896;SDS011;10608;42.600;23.398;2023-06-01T06:42:36;21.70;;;20.60;;
20896;SDS011;10608;42.600;23.398;2023-06-01T06:45:02;21.80;;;20.80;;
20896;SDS011;10608;42.600;23.398;2023-06-01T06:47:27;14.97;;;14.23;;
20896;SDS011;10608;42.600;23.398;2023-06-01T06:49:53;27.63;;;26.23;;
20896;SDS011;10608;42.600;23.398;2023-06-01T06:52:18;16.03;;;15.13;;
20896;SDS011;10608;42.600;23.398;2023-06-01T06:54:43;27.37;;;26.07;;
20896;SDS011;10608;42.600;23.398;2023-06-01T06:57:09;71.40;;;68.30;;
20896;SDS011;10608;42.600;23.398;2023-06-01T06:59:35;39.83;;;38.00;;
20896;SDS011;10608;42.600;23.398;2023-06-01T07:02:01;36.00;;;34.30;;
20896;SDS011;10608;42.600;23.398;2023-06-01T07:04:27;26.37;;;24.97;;
20896;SDS011;10608;42.600;23.398;2023-06-01T07:06:52;31.20;;;29.67;;
20896;SDS011;10608;42.600;23.398;2023-06-01T07:09:18;17.83;;;16.83;;
20896;SDS011;10608;42.600;23.398;2023-06-01T07:11:43;30.23;;;28.73;;
20896;SDS011;10608;42.600;23.398;2023-06-01T07:14:10;37.07;;;35.30;;
20896;SDS011;10608;42.600;23.398;2023-06-01T07:16:35;24.17;;;22.83;;
20896;SDS011;10608;42.600;23.398;2023-06-01T07:19:00;18.83;;;17.77;;
20896;SDS011;10608;42.600;23.398;2023-06-01T07:21:25;17.83;;;16.93;;
20896;SDS011;10608;42.600;23.398;2023-06-01T07:23:51;29.17;;;27.83;;
20896;SDS011;10608;42.600;23.398;2023-06-01T07:26:16;25.50;;;24.30;;
20896;SDS011;10608;42.600;23.398;2023-06-01T07:28:41;22.60;;;20.93;;
20896;SDS011;10608;42.600;23.398;2023-06-01T07:31:07;14.53;;;13.63;;
20896;SDS011;10608;42.600;23.398;2023-06-01T07:33:32;42.83;;;40.83;;
20896;SDS011;10608;42.600;23.398;2023-06-01T07:35:58;38.50;;;36.50;;
20896;SDS011;10608;42.600;23.398;2023-06-01T07:38:24;14.20;;;13.40;;
20896;SDS011;10608;42.600;23.398;2023-06-01T07:40:50;17.50;;;16.00;;
20896;SDS011;10608;42.600;23.398;2023-06-01T07:43:15;74.63;;;71.10;;
20896;SDS011;10608;42.600;23.398;2023-06-01T07:45:40;19.73;;;18.63;;
20896;SDS011;10608;42.600;23.398;2023-06-01T07:48:05;70.07;;;66.87;;
20896;SDS011;10608;42.600;23.398;2023-06-01T07:50:31;57.33;;;54.70;;
20896;SDS011;10608;42.600;23.398;2023-06-01T07:52:57;28.00;;;26.60;;
20896;SDS011;10608;42.600;23.398;2023-06-01T07:55:22;32.60;;;31.03;;
20896;SDS011;10608;42.600;23.398;2023-06-01T07:57:48;18.23;;;17.33;;
20896;SDS011;10608;42.600;23.398;2023-06-01T08:00:13;19.07;;;18.17;;
20896;SDS011;10608;42.600;23.398;2023-06-01T08:02:42;19.27;;;18.30;;
20896;SDS011;10608;42.600;23.398;2023-06-01T08:05:07;14.73;;;13.93;;
20896;SDS011;10608;42.600;23.398;2023-06-01T08:07:32;16.37;;;15.47;;
20896;SDS011;10608;42.600;23.398;2023-06-01T08:09:58;24.17;;;22.97;;
20896;SDS011;10608;42.600;23.398;2023-06-01T08:12:24;23.43;;;22.33;;
20896;SDS011;10608;42.600;23.398;2023-06-01T08:14:51;22.67;;;21.47;;
20896;SDS011;10608;42.600;23.398;2023-06-01T08:17:16;16.27;;;15.40;;
20896;SDS011;10608;42.600;23.398;2023-06-01T08:19:43;13.57;;;12.87;;
20896;SDS011;10608;42.600;23.398;2023-06-01T08:22:09;14.03;;;13.23;;
20896;SDS011;10608;42.600;23.398;2023-06-01T08:24:34;13.33;;;12.53;;
20896;SDS011;10608;42.600;23.398;2023-06-01T08:27:00;14.30;;;13.43;;
20896;SDS011;10608;42.600;23.398;2023-06-01T08:29:27;11.93;;;11.33;;
20896;SDS011;10608;42.600;23.398;2023-06-01T08:31:52;12.03;;;11.30;;
20896;SDS011;10608;42.600;23.398;2023-06-01T08:34:17;23.43;;;21.90;;
20896;SDS011;10608;42.600;23.398;2023-06-01T08:36:43;13.87;;;13.17;;
20896;SDS011;10608;42.600;23.398;2023-06-01T08:39:20;17.50;;;16.40;;
20896;SDS011;10608;42.600;23.398;2023-06-01T08:41:55;20.67;;;19.60;;
20896;SDS011;10608;42.600;23.398;2023-06-01T08:44:23;14.47;;;13.67;;
20896;SDS011;10608;42.600;23.398;2023-06-01T08:46:51;14.27;;;13.37;;
20896;SDS011;10608;42.600;23.398;2023-06-01T08:49:16;14.23;;;13.27;;
20896;SDS011;10608;42.600;23.398;2023-06-01T08:51:43;16.57;;;15.43;;
20896;SDS011;10608;42.600;23.398;2023-06-01T08:54:10;24.93;;;23.53;;
20896;SDS011;10608;42.600;23.398;2023-06-01T08:56:35;16.87;;;15.67;;
20896;SDS011;10608;42.600;23.398;2023-06-01T08:59:01;61.17;;;58.27;;
20896;SDS011;10608;42.600;23.398;2023-06-01T09:01:27;38.97;;;36.90;;
20896;SDS011;10608;42.600;23.398;2023-06-01T09:03:52;45.10;;;42.87;;
20896;SDS011;10608;42.600;23.398;2023-06-01T09:06:17;34.07;;;32.03;;
20896;SDS011;10608;42.600;23.398;2023-06-01T09:08:44;27.40;;;25.67;;
20896;SDS011;10608;42.600;23.398;2023-06-01T09:11:09;17.77;;;16.67;;
20896;SDS011;10608;42.600;23.398;2023-06-01T09:13:36;21.47;;;19.97;;
20896;SDS011;10608;42.600;23.398;2023-06-01T09:16:01;50.10;;;47.37;;
20896;SDS011;10608;42.600;23.398;2023-06-01T09:18:27;45.23;;;42.93;;
20896;SDS011;10608;42.600;23.398;2023-06-01T09:20:52;35.53;;;33.60;;
20896;SDS011;10608;42.600;23.398;2023-06-01T09:23:25;21.50;;;20.10;;
20896;SDS011;10608;42.600;23.398;2023-06-01T09:26:07;45.83;;;43.73;;
20896;SDS011;10608;42.600;23.398;2023-06-01T09:34:05;23.13;;;21.67;;
20896;SDS011;10608;42.600;23.398;2023-06-01T09:36:30;21.47;;;20.17;;
20896;SDS011;10608;42.600;23.398;2023-06-01T09:39:02;23.93;;;22.57;;
20896;SDS011;10608;42.600;23.398;2023-06-01T09:41:27;25.07;;;23.57;;
20896;SDS011;10608;42.600;23.398;2023-06-01T09:43:56;20.27;;;19.07;;
20896;SDS011;10608;42.600;23.398;2023-06-01T09:46:21;20.60;;;17.03;;
20896;SDS011;10608;42.600;23.398;2023-06-01T09:48:47;18.37;;;17.10;;
20896;SDS011;10608;42.600;23.398;2023-06-01T09:51:21;17.20;;;16.13;;
20896;SDS011;10608;42.600;23.398;2023-06-01T09:53:47;16.53;;;15.53;;
20896;SDS011;10608;42.600;23.398;2023-06-01T09:56:13;19.00;;;17.70;;
20896;SDS011;10608;42.600;23.398;2023-06-01T09:58:38;17.53;;;16.53;;
20896;SDS011;10608;42.600;23.398;2023-06-01T10:01:05;14.83;;;12.60;;
20896;SDS011;10608;42.600;23.398;2023-06-01T10:03:33;13.63;;;12.63;;
20896;SDS011;10608;42.600;23.398;2023-06-01T10:05:58;19.10;;;17.90;;
20896;SDS011;10608;42.600;23.398;2023-06-01T10:08:24;28.67;;;27.13;;
20896;SDS011;10608;42.600;23.398;2023-06-01T10:10:49;17.97;;;16.80;;
20896;SDS011;10608;42.600;23.398;2023-06-01T10:13:15;24.57;;;22.77;;
20896;SDS011;10608;42.600;23.398;2023-06-01T10:15:41;41.57;;;39.37;;
20896;SDS011;10608;42.600;23.398;2023-06-01T10:18:06;55.70;;;53.10;;
20896;SDS011;10608;42.600;23.398;2023-06-01T10:20:36;45.93;;;41.40;;
20896;SDS011;10608;42.600;23.398;2023-06-01T10:23:02;22.37;;;21.10;;
20896;SDS011;10608;42.600;23.398;2023-06-01T10:25:33;26.53;;;25.10;;
20896;SDS011;10608;42.600;23.398;2023-06-01T10:28:04;23.27;;;21.97;;
20896;SDS011;10608;42.600;23.398;2023-06-01T10:30:32;34.63;;;32.43;;
20896;SDS011;10608;42.600;23.398;2023-06-01T10:32:57;20.67;;;19.67;;
20896;SDS011;10608;42.600;23.398;2023-06-01T10:40:34;30.90;;;29.50;;
20896;SDS011;10608;42.600;23.398;2023-06-01T10:43:00;31.87;;;30.37;;
20896;SDS011;10608;42.600;23.398;2023-06-01T10:48:03;55.93;;;53.53;;
20896;SDS011;10608;42.600;23.398;2023-06-01T10:50:29;51.27;;;48.90;;
20896;SDS011;10608;42.600;23.398;2023-06-01T10:52:54;37.27;;;35.63;;
20896;SDS011;10608;42.600;23.398;2023-06-01T10:55:21;46.50;;;44.47;;
20896;SDS011;10608;42.600;23.398;2023-06-01T10:57:47;16.13;;;15.13;;
20896;SDS011;10608;42.600;23.398;2023-06-01T11:00:25;98.00;;;93.90;;
20896;SDS011;10608;42.600;23.398;2023-06-01T11:02:55;26.53;;;25.33;;
20896;SDS011;10608;42.600;23.398;2023-06-01T11:13:16;28.57;;;27.37;;
20896;SDS011;10608;42.600;23.398;2023-06-01T11:21:06;28.27;;;27.07;;
20896;SDS011;10608;42.600;23.398;2023-06-01T11:23:32;38.10;;;36.40;;
20896;SDS011;10608;42.600;23.398;2023-06-01T11:25:58;31.87;;;30.37;;
20896;SDS011;10608;42.600;23.398;2023-06-01T11:28:26;32.77;;;31.37;;
20896;SDS011;10608;42.600;23.398;2023-06-01T11:30:52;36.40;;;34.70;;
20896;SDS011;10608;42.600;23.398;2023-06-01T11:33:17;63.10;;;60.27;;
20896;SDS011;10608;42.600;23.398;2023-06-01T11:35:44;50.27;;;47.87;;
20896;SDS011;10608;42.600;23.398;2023-06-01T11:38:09;62.80;;;60.10;;
20896;SDS011;10608;42.600;23.398;2023-06-01T11:40:34;60.17;;;57.63;;
20896;SDS011;10608;42.600;23.398;2023-06-01T11:43:00;32.60;;;31.00;;
20896;SDS011;10608;42.600;23.398;2023-06-01T11:45:25;40.20;;;38.47;;
20896;SDS011;10608;42.600;23.398;2023-06-01T11:47:52;49.60;;;47.43;;
20896;SDS011;10608;42.600;23.398;2023-06-01T11:50:22;51.60;;;49.23;;
20896;SDS011;10608;42.600;23.398;2023-06-01T11:52:49;59.03;;;55.93;;
20896;SDS011;10608;42.600;23.398;2023-06-01T11:55:14;41.03;;;39.23;;
20896;SDS011;10608;42.600;23.398;2023-06-01T11:57:40;49.40;;;47.20;;
20896;SDS011;10608;42.600;23.398;2023-06-01T12:00:09;37.73;;;36.07;;
20896;SDS011;10608;42.600;23.398;2023-06-01T12:02:37;29.70;;;28.20;;
20896;SDS011;10608;42.600;23.398;2023-06-01T12:05:04;30.83;;;29.17;;
20896;SDS011;10608;42.600;23.398;2023-06-01T12:07:45;33.73;;;32.27;;
20896;SDS011;10608;42.600;23.398;2023-06-01T12:10:11;27.00;;;25.80;;
20896;SDS011;10608;42.600;23.398;2023-06-01T12:12:39;28.37;;;27.17;;
20896;SDS011;10608;42.600;23.398;2023-06-01T12:15:05;47.33;;;45.33;;
20896;SDS011;10608;42.600;23.398;2023-06-01T12:20:36;55.53;;;53.10;;
20896;SDS011;10608;42.600;23.398;2023-06-01T12:23:11;31.70;;;30.40;;
20896;SDS011;10608;42.600;23.398;2023-06-01T12:25:51;29.50;;;28.20;;
20896;SDS011;10608;42.600;23.398;2023-06-01T12:28:17;56.40;;;53.90;;
20896;SDS011;10608;42.600;23.398;2023-06-01T12:30:42;58.30;;;55.70;;
20896;SDS011;10608;42.600;23.398;2023-06-01T12:33:08;50.43;;;48.20;;
20896;SDS011;10608;42.600;23.398;2023-06-01T12:35:46;39.27;;;37.50;;
20896;SDS011;10608;42.600;23.398;2023-06-01T12:38:11;39.13;;;37.43;;
20896;SDS011;10608;42.600;23.398;2023-06-01T12:40:37;47.10;;;45.10;;
20896;SDS011;10608;42.600;23.398;2023-06-01T12:43:03;38.20;;;36.50;;
20896;SDS011;10608;42.600;23.398;2023-06-01T12:45:36;48.40;;;45.97;;
20896;SDS011;10608;42.600;23.398;2023-06-01T12:48:01;38.67;;;37.03;;
20896;SDS011;10608;42.600;23.398;2023-06-01T12:50:27;43.60;;;41.80;;
20896;SDS011;10608;42.600;23.398;2023-06-01T12:52:52;50.90;;;48.63;;
20896;SDS011;10608;42.600;23.398;2023-06-01T12:55:17;51.97;;;49.67;;
20896;SDS011;10608;42.600;23.398;2023-06-01T12:57:43;51.00;;;48.77;;
20896;SDS011;10608;42.600;23.398;2023-06-01T13:00:08;53.17;;;50.73;;
20896;SDS011;10608;42.600;23.398;2023-06-01T13:02:34;52.60;;;50.30;;
20896;SDS011;10608;42.600;23.398;2023-06-01T13:04:59;56.80;;;54.13;;
20896;SDS011;10608;42.600;23.398;2023-06-01T13:07:25;56.57;;;53.97;;
20896;SDS011;10608;42.600;23.398;2023-06-01T13:09:50;58.37;;;55.77;;
20896;SDS011;10608;42.600;23.398;2023-06-01T13:12:16;59.00;;;56.40;;
20896;SDS011;10608;42.600;23.398;2023-06-01T13:14:42;65.57;;;62.77;;
20896;SDS011;10608;42.600;23.398;2023-06-01T13:17:07;61.60;;;58.93;;
20896;SDS011;10608;42.600;23.398;2023-06-01T13:19:33;59.93;;;57.40;;
20896;SDS011;10608;42.600;23.398;2023-06-01T13:21:58;61.47;;;58.87;;
20896;SDS011;10608;42.600;23.398;2023-06-01T13:24:23;68.80;;;65.60;;
20896;SDS011;10608;42.600;23.398;2023-06-01T13:26:48;81.33;;;77.70;;
20896;SDS011;10608;42.600;23.398;2023-06-01T13:29:14;75.10;;;71.83;;
20896;SDS011;10608;42.600;23.398;2023-06-01T13:31:39;64.57;;;61.70;;
20896;SDS011;10608;42.600;23.398;2023-06-01T13:34:05;64.07;;;61.23;;
20896;SDS011;10608;42.600;23.398;2023-06-01T13:36:30;58.33;;;55.73;;
20896;SDS011;10608;42.600;23.398;2023-06-01T13:38:55;56.33;;;53.83;;
20896;SDS011;10608;42.600;23.398;2023-06-01T13:41:21;76.07;;;72.77;;
20896;SDS011;10608;42.600;23.398;2023-06-01T13:43:46;87.10;;;83.27;;
20896;SDS011;10608;42.600;23.398;2023-06-01T13:46:12;101.97;;;97.53;;
20896;SDS011;10608;42.600;23.398;2023-06-01T13:48:37;105.23;;;100.63;;
20896;SDS011;10608;42.600;23.398;2023-06-01T13:51:03;107.23;;;102.40;;
20896;SDS011;10608;42.600;23.398;2023-06-01T13:53:28;54.80;;;52.40;;
20896;SDS011;10608;42.600;23.398;2023-06-01T13:55:53;55.47;;;53.00;;
20896;SDS011;10608;42.600;23.398;2023-06-01T13:58:19;61.10;;;58.40;;
20896;SDS011;10608;42.600;23.398;2023-06-01T14:00:44;81.53;;;78.03;;
20896;SDS011;10608;42.600;23.398;2023-06-01T14:03:09;85.70;;;81.93;;
20896;SDS011;10608;42.600;23.398;2023-06-01T14:05:35;97.80;;;93.37;;
20896;SDS011;10608;42.600;23.398;2023-06-01T14:08:00;81.77;;;78.17;;
20896;SDS011;10608;42.600;23.398;2023-06-01T14:10:27;60.07;;;57.33;;
20896;SDS011;10608;42.600;23.398;2023-06-01T14:12:53;48.53;;;46.33;;
20896;SDS011;10608;42.600;23.398;2023-06-01T14:15:18;52.87;;;50.53;;
20896;SDS011;10608;42.600;23.398;2023-06-01T14:17:44;59.00;;;56.23;;
20896;SDS011;10608;42.600;23.398;2023-06-01T14:20:09;51.80;;;49.53;;
20896;SDS011;10608;42.600;23.398;2023-06-01T14:22:34;51.43;;;49.20;;
20896;SDS011;10608;42.600;23.398;2023-06-01T14:25:00;44.97;;;43.03;;
20896;SDS011;10608;42.600;23.398;2023-06-01T14:27:25;41.77;;;39.93;;
20896;SDS011;10608;42.600;23.398;2023-06-01T14:29:50;44.03;;;42.13;;
20896;SDS011;10608;42.600;23.398;2023-06-01T14:32:15;56.83;;;54.40;;
20896;SDS011;10608;42.600;23.398;2023-06-01T14:34:41;55.47;;;52.93;;
20896;SDS011;10608;42.600;23.398;2023-06-01T14:37:06;54.77;;;52.37;;
20896;SDS011;10608;42.600;23.398;2023-06-01T14:39:35;55.07;;;52.60;;